Time;durP1;ratioP1;P1;durP2;ratioP2;P2;SDS_P1;SDS_P2;PMS_P1;PMS_P2;Temp;Humidity;BMP_temperature;BMP_pressure;BME280_temperature;BME280_humidity;BME280_pressure;Samples;Min_cycle;Max_cycle;Signal;HPM_P1;HPM_P2
2022/02/01 00:02:11;;;;;;;62.88;19.33;;;;;;;;;;4944943;28;20475;-67
2022/02/01 00:04:49;;;;;;;;;;;;;;;;;;4950408;28;20096;-66
2022/02/01 00:07:26;;;;;;;48.85;15.98;;;;;;;;;;4934619;28;20267;-66
2022/02/01 00:10:13;;;;;;;47.38;17.83;;;;;;;;;;4934286;28;20102;-67
2022/02/01 00:13:02;;;;;;;54.33;17.60;;;;;;;;;;4949814;28;20364;-67
2022/02/01 00:34:24;;;;;;;44.67;17.75;;;;;;;;;;4951084;28;20526;-66
2022/02/01 00:36:54;;;;;;;49.20;18.00;;;;;;;;;;4952466;28;20317;-67
2022/02/01 00:39:28;;;;;;;54.13;18.45;;;;;;;;;;4954040;28;20502;-66
2022/02/01 00:41:54;;;;;;;50.38;19.40;;;;;;;;;;4953440;28;20495;-67
2022/02/01 00:44:20;;;;;;;44.60;16.38;;;;;;;;;;4936322;28;20494;-67
2022/02/01 00:46:46;;;;;;;47.53;18.73;;;;;;;;;;4953882;28;20491;-67
2022/02/01 00:49:11;;;;;;;50.47;16.85;;;;;;;;;;4953166;28;20433;-67
2022/02/01 00:51:37;;;;;;;53.65;16.83;;;;;;;;;;4953447;28;20436;-67
2022/02/01 00:54:02;;;;;;;44.72;15.80;;;;;;;;;;4953280;28;20340;-66
2022/02/01 00:56:27;;;;;;;53.80;19.20;;;;;;;;;;4953882;28;20506;-66
2022/02/01 00:58:53;;;;;;;52.97;17.17;;;;;;;;;;4953131;28;20481;-67
2022/02/01 01:01:18;;;;;;;52.50;18.80;;;;;;;;;;4941394;28;20048;-67
2022/02/01 01:03:47;;;;;;;52.22;17.38;;;;;;;;;;4958669;28;20333;-67
2022/02/01 01:06:13;;;;;;;51.95;17.17;;;;;;;;;;4936156;28;20307;-67
2022/02/01 01:08:40;;;;;;;47.45;18.08;;;;;;;;;;4935561;28;20447;-67
2022/02/01 01:11:06;;;;;;;51.17;17.92;;;;;;;;;;4931723;28;20346;-68
2022/02/01 01:45:51;;;;;;;46.15;15.75;;;;;;;;;;4946169;28;20521;-67
2022/02/01 01:53:44;;;;;;;42.20;15.02;;;;;;;;;;4932724;28;20145;-67
2022/02/01 01:56:09;;;;;;;49.55;16.38;;;;;;;;;;4932740;28;20433;-66
2022/02/01 01:58:34;;;;;;;43.97;16.40;;;;;;;;;;4932803;28;20061;-67
2022/02/01 02:03:34;;;;;;;46.75;15.68;;;;;;;;;;4932603;28;20358;-66
2022/02/01 02:05:59;;;;;;;49.85;16.50;;;;;;;;;;4933130;28;20439;-67
2022/02/01 02:08:25;;;;;;;51.38;16.27;;;;;;;;;;4932514;28;20341;-67
2022/02/01 02:10:57;;;;;;;38.42;14.85;;;;;;;;;;4935303;28;20373;-67
2022/02/01 02:15:58;;;;;;;47.72;16.52;;;;;;;;;;4952081;28;20412;-66
2022/02/01 02:18:26;;;;;;;48.65;15.77;;;;;;;;;;4951864;28;20437;-68
2022/02/01 02:20:58;;;;;;;44.25;16.08;;;;;;;;;;4934010;28;20343;-67
2022/02/01 02:23:24;;;;;;;50.42;15.55;;;;;;;;;;4950751;28;20336;-67
2022/02/01 02:25:50;;;;;;;49.22;17.58;;;;;;;;;;4933699;28;20337;-68
2022/02/01 02:28:17;;;;;;;41.45;15.15;;;;;;;;;;4953541;28;20444;-67
2022/02/01 02:30:44;;;;;;;40.45;15.00;;;;;;;;;;4950058;28;20383;-67
2022/02/01 02:33:12;;;;;;;37.90;14.13;;;;;;;;;;4952514;28;20384;-67
2022/02/01 02:36:00;;;;;;;43.00;15.02;;;;;;;;;;4950234;28;20360;-67
2022/02/01 02:41:28;;;;;;;35.20;14.05;;;;;;;;;;4935036;28;20413;-66
2022/02/01 02:46:41;;;;;;;33.83;12.63;;;;;;;;;;4950313;28;20388;-68
2022/02/01 02:49:13;;;;;;;42.45;15.05;;;;;;;;;;4933681;28;20352;-67
2022/02/01 02:51:39;;;;;;;37.03;13.18;;;;;;;;;;4933669;28;20419;-67
2022/02/01 02:54:06;;;;;;;33.22;13.35;;;;;;;;;;4952430;28;20344;-67
2022/02/01 02:56:32;;;;;;;36.85;14.15;;;;;;;;;;4933406;28;20328;-66
2022/02/01 02:58:58;;;;;;;42.85;14.27;;;;;;;;;;4933085;28;20146;-67
2022/02/01 03:01:23;;;;;;;40.63;14.60;;;;;;;;;;4933079;28;20030;-67
2022/02/01 03:03:48;;;;;;;34.13;12.98;;;;;;;;;;4951709;28;20053;-66
2022/02/01 03:06:14;;;;;;;35.65;14.27;;;;;;;;;;4949179;28;20026;-67
2022/02/01 03:08:39;;;;;;;39.63;14.23;;;;;;;;;;4949772;28;20501;-67
2022/02/01 03:11:10;;;;;;;40.90;14.55;;;;;;;;;;4950329;28;20457;-67
2022/02/01 03:13:36;;;;;;;32.50;12.45;;;;;;;;;;4950765;28;20464;-67
2022/02/01 03:21:31;;;;;;;49.10;13.13;;;;;;;;;;4950430;28;20411;-67
2022/02/01 03:23:57;;;;;;;44.80;13.75;;;;;;;;;;4932643;28;20372;-67
2022/02/01 03:26:22;;;;;;;34.00;12.18;;;;;;;;;;4951946;28;20348;-67
2022/02/01 03:28:47;;;;;;;36.47;13.05;;;;;;;;;;4933295;28;20340;-67
2022/02/01 03:31:13;;;;;;;32.88;12.85;;;;;;;;;;4949295;28;20388;-67
2022/02/01 03:33:38;;;;;;;33.65;12.85;;;;;;;;;;4933043;28;20495;-67
2022/02/01 03:36:04;;;;;;;34.80;12.80;;;;;;;;;;4950443;28;20332;-67
2022/02/01 03:38:29;;;;;;;32.65;12.52;;;;;;;;;;4932842;28;20407;-67
2022/02/01 03:40:54;;;;;;;37.10;13.45;;;;;;;;;;4950705;28;20391;-67
2022/02/01 03:43:19;;;;;;;27.90;11.85;;;;;;;;;;4932851;28;20429;-68
2022/02/01 03:45:45;;;;;;;30.42;12.68;;;;;;;;;;4950553;28;20538;-67
2022/02/01 03:48:10;;;;;;;31.60;12.13;;;;;;;;;;4950937;28;20034;-67
2022/02/01 03:50:36;;;;;;;34.45;12.25;;;;;;;;;;4950162;28;20416;-67
2022/02/01 03:53:01;;;;;;;33.45;12.45;;;;;;;;;;4932246;28;20242;-67
2022/02/01 03:55:26;;;;;;;25.52;10.73;;;;;;;;;;4951441;28;20352;-67
2022/02/01 03:57:52;;;;;;;31.20;13.60;;;;;;;;;;4949972;28;20486;-67
2022/02/01 04:00:17;;;;;;;34.05;12.25;;;;;;;;;;4951466;28;20409;-67
2022/02/01 04:02:42;;;;;;;36.72;13.00;;;;;;;;;;4949912;28;20436;-67
2022/02/01 04:05:08;;;;;;;31.80;12.13;;;;;;;;;;4948998;28;20439;-66
2022/02/01 04:07:33;;;;;;;29.27;11.32;;;;;;;;;;4950467;28;20375;-67
2022/02/01 04:09:58;;;;;;;24.20;10.95;;;;;;;;;;4947468;28;20298;-66
2022/02/01 04:12:25;;;;;;;35.15;11.27;;;;;;;;;;4950613;28;20434;-68
2022/02/01 04:14:53;;;;;;;27.48;11.57;;;;;;;;;;4949642;28;20317;-67
2022/02/01 04:17:18;;;;;;;27.85;10.15;;;;;;;;;;4949905;28;20384;-67
2022/02/01 04:19:45;;;;;;;30.10;10.93;;;;;;;;;;4932228;28;20414;-67
2022/02/01 04:22:11;;;;;;;25.50;10.27;;;;;;;;;;4949805;28;20409;-67
2022/02/01 04:24:41;;;;;;;28.38;11.60;;;;;;;;;;4932156;28;20416;-67
2022/02/01 04:27:10;;;;;;;25.90;10.32;;;;;;;;;;4948401;28;20376;-67
2022/02/01 04:29:39;;;;;;;32.67;11.20;;;;;;;;;;4950744;28;20445;-67
2022/02/01 04:32:05;;;;;;;;;;;;;;;;;;4949828;28;20487;-67
2022/02/01 04:34:30;;;;;;;29.50;9.90;;;;;;;;;;4947964;28;20332;-67
2022/02/01 04:36:55;;;;;;;27.95;10.98;;;;;;;;;;4949632;28;20408;-67
2022/02/01 04:39:21;;;;;;;22.90;10.88;;;;;;;;;;4949480;28;20433;-66
2022/02/01 04:41:47;;;;;;;26.60;9.63;;;;;;;;;;4949621;28;20398;-67
2022/02/01 04:44:13;;;;;;;29.80;9.32;;;;;;;;;;4949879;28;20475;-67
2022/02/01 04:46:39;;;;;;;24.92;9.45;;;;;;;;;;4949872;28;20399;-66
2022/02/01 04:49:08;;;;;;;30.80;9.95;;;;;;;;;;4931793;28;20448;-67
2022/02/01 04:51:34;;;;;;;21.55;8.75;;;;;;;;;;4949862;28;20425;-66
2022/02/01 04:53:59;;;;;;;27.13;9.68;;;;;;;;;;4949742;28;20459;-67
2022/02/01 04:56:25;;;;;;;19.55;8.95;;;;;;;;;;4949948;28;20351;-67
2022/02/01 04:58:50;;;;;;;28.80;9.95;;;;;;;;;;4949325;28;20473;-66
2022/02/01 05:01:16;;;;;;;25.33;11.48;;;;;;;;;;4950787;28;20101;-66
2022/02/01 05:03:41;;;;;;;31.83;10.65;;;;;;;;;;4949047;28;20049;-67
2022/02/01 05:06:08;;;;;;;30.88;9.52;;;;;;;;;;4949488;28;20084;-67
2022/02/01 05:08:33;;;;;;;27.33;9.90;;;;;;;;;;4963705;28;20123;-67
2022/02/01 05:10:59;;;;;;;26.73;10.02;;;;;;;;;;4948384;28;20029;-67
2022/02/01 05:16:23;;;;;;;23.05;10.43;;;;;;;;;;4933248;28;20179;-67
2022/02/01 05:18:47;;;;;;;26.52;8.90;;;;;;;;;;4935477;28;20494;-67
2022/02/01 05:21:20;;;;;;;35.95;12.57;;;;;;;;;;4949697;28;20460;-67
2022/02/01 05:23:46;;;;;;;26.52;9.32;;;;;;;;;;4953336;28;20423;-67
2022/02/01 05:26:12;;;;;;;25.30;9.75;;;;;;;;;;4953678;28;20429;-67
2022/02/01 05:28:37;;;;;;;25.45;10.00;;;;;;;;;;4935490;28;20476;-67
2022/02/01 05:31:04;;;;;;;20.40;9.25;;;;;;;;;;4952443;28;20453;-66
2022/02/01 05:33:30;;;;;;;30.75;9.93;;;;;;;;;;4950971;28;20345;-69
2022/02/01 05:35:56;;;;;;;25.10;9.48;;;;;;;;;;4950876;28;20368;-67
2022/02/01 05:38:21;;;;;;;22.88;8.55;;;;;;;;;;4952306;28;20387;-67
2022/02/01 05:40:48;;;;;;;31.70;10.07;;;;;;;;;;4967731;28;20049;-67
2022/02/01 05:43:19;;;;;;;23.73;9.10;;;;;;;;;;4952443;28;20440;-66
2022/02/01 05:45:45;;;;;;;31.30;9.52;;;;;;;;;;4935605;28;20368;-67
2022/02/01 05:48:11;;;;;;;24.13;9.20;;;;;;;;;;4934494;28;20349;-68
2022/02/01 05:50:36;;;;;;;33.03;11.02;;;;;;;;;;4966940;28;20531;-68
2022/02/01 05:53:01;;;;;;;26.58;9.13;;;;;;;;;;4934586;28;20053;-67
2022/02/01 05:55:27;;;;;;;24.52;9.38;;;;;;;;;;4952076;28;20045;-68
2022/02/01 05:57:53;;;;;;;30.10;10.52;;;;;;;;;;4952895;28;20474;-68
2022/02/01 06:00:20;;;;;;;23.35;8.63;;;;;;;;;;4952058;28;20425;-66
2022/02/01 06:02:46;;;;;;;22.17;8.90;;;;;;;;;;4953026;28;20037;-67
2022/02/01 06:05:14;;;;;;;30.23;10.55;;;;;;;;;;4951698;28;20353;-67
2022/02/01 06:07:40;;;;;;;21.10;7.72;;;;;;;;;;4950090;28;20434;-66
2022/02/01 06:10:05;;;;;;;21.60;8.10;;;;;;;;;;4953441;28;20347;-67
2022/02/01 06:12:41;;;;;;;26.70;8.65;;;;;;;;;;4951825;28;20495;-67
2022/02/01 06:15:09;;;;;;;24.65;8.98;;;;;;;;;;4951844;28;20392;-67
2022/02/01 06:17:34;;;;;;;19.08;8.18;;;;;;;;;;4951777;28;20070;-67
2022/02/01 06:19:59;;;;;;;21.45;9.13;;;;;;;;;;4952768;28;20092;-66
2022/02/01 06:22:25;;;;;;;26.77;8.50;;;;;;;;;;4951765;28;20356;-67
2022/02/01 06:24:51;;;;;;;21.92;8.77;;;;;;;;;;4951737;28;20433;-67
2022/02/01 06:27:16;;;;;;;26.90;9.25;;;;;;;;;;4934499;28;20049;-69
2022/02/01 06:29:42;;;;;;;19.90;8.15;;;;;;;;;;4951505;28;20022;-67
2022/02/01 06:32:07;;;;;;;23.27;8.65;;;;;;;;;;4951490;28;20436;-67
2022/02/01 06:34:32;;;;;;;18.27;7.53;;;;;;;;;;4950727;28;20491;-67
2022/02/01 06:36:58;;;;;;;23.38;8.45;;;;;;;;;;4951495;28;20376;-67
2022/02/01 06:39:26;;;;;;;17.30;8.07;;;;;;;;;;4933614;28;20433;-66
2022/02/01 06:41:52;;;;;;;26.70;9.10;;;;;;;;;;4951427;28;20413;-67
2022/02/01 06:44:17;;;;;;;22.52;8.50;;;;;;;;;;4951280;28;20471;-67
2022/02/01 06:46:42;;;;;;;21.58;8.80;;;;;;;;;;4933734;28;20356;-66
2022/02/01 06:49:11;;;;;;;27.42;8.88;;;;;;;;;;4951334;28;20396;-66
2022/02/01 06:51:39;;;;;;;19.83;8.55;;;;;;;;;;4950963;28;20310;-66
2022/02/01 06:54:05;;;;;;;18.55;7.55;;;;;;;;;;4951242;28;20052;-67
2022/02/01 06:56:33;;;;;;;23.15;8.05;;;;;;;;;;4950888;28;20316;-67
2022/02/01 06:59:04;;;;;;;20.15;8.25;;;;;;;;;;4950849;28;20025;-68
2022/02/01 07:01:30;;;;;;;21.83;8.60;;;;;;;;;;4933333;28;20083;-67
2022/02/01 07:03:55;;;;;;;24.98;8.52;;;;;;;;;;4933019;28;20491;-68
2022/02/01 07:06:21;;;;;;;20.98;7.55;;;;;;;;;;4951033;28;20468;-66
2022/02/01 07:08:48;;;;;;;27.88;9.80;;;;;;;;;;4965908;28;20514;-67
2022/02/01 07:11:15;;;;;;;26.13;7.57;;;;;;;;;;4929618;28;20443;-67
2022/02/01 07:13:40;;;;;;;20.33;8.15;;;;;;;;;;4930082;28;20469;-67
2022/02/01 07:16:07;;;;;;;19.45;9.23;;;;;;;;;;4930246;28;20463;-67
2022/02/01 07:18:32;;;;;;;18.77;7.53;;;;;;;;;;4945803;28;20430;-67
2022/02/01 07:20:58;;;;;;;20.52;7.70;;;;;;;;;;4931956;28;20338;-66
2022/02/01 07:23:25;;;;;;;23.42;8.77;;;;;;;;;;4932329;28;20053;-67
2022/02/01 07:25:52;;;;;;;25.60;9.35;;;;;;;;;;4931138;28;20168;-67
2022/02/01 07:28:19;;;;;;;22.05;7.53;;;;;;;;;;4930065;28;20484;-67
2022/02/01 07:30:45;;;;;;;21.70;7.95;;;;;;;;;;4931013;28;21403;-67
2022/02/01 07:33:10;;;;;;;22.80;8.57;;;;;;;;;;4946003;28;20092;-67
2022/02/01 07:35:39;;;;;;;23.70;9.02;;;;;;;;;;4929626;28;20034;-68
2022/02/01 07:38:05;;;;;;;22.58;7.90;;;;;;;;;;4929492;28;20361;-67
2022/02/01 07:40:31;;;;;;;15.38;7.63;;;;;;;;;;4930916;28;20360;-67
2022/02/01 07:42:57;;;;;;;21.88;7.63;;;;;;;;;;4931571;28;20034;-67
2022/02/01 07:45:27;;;;;;;15.38;7.18;;;;;;;;;;4928700;28;20089;-67
2022/02/01 07:47:53;;;;;;;17.38;7.00;;;;;;;;;;4930853;28;20120;-67
2022/02/01 07:50:18;;;;;;;19.38;7.88;;;;;;;;;;4929402;28;20140;-68
2022/02/01 07:52:44;;;;;;;18.67;7.57;;;;;;;;;;4931058;28;20026;-67
2022/02/01 07:55:09;;;;;;;16.88;7.82;;;;;;;;;;4930799;28;20527;-68
2022/02/01 07:57:35;;;;;;;22.48;7.97;;;;;;;;;;4931170;28;20417;-68
2022/02/01 08:00:00;;;;;;;20.38;7.80;;;;;;;;;;4930581;28;20418;-67
2022/02/01 08:02:25;;;;;;;18.67;7.57;;;;;;;;;;4931005;28;20409;-67
2022/02/01 08:04:53;;;;;;;18.85;8.30;;;;;;;;;;4930987;28;20436;-67
2022/02/01 08:07:20;;;;;;;18.83;6.75;;;;;;;;;;4945017;28;20364;-67
2022/02/01 08:09:48;;;;;;;17.55;7.57;;;;;;;;;;4930296;28;20424;-67
2022/02/01 08:17:14;;;;;;;18.48;7.38;;;;;;;;;;4929313;28;20441;-67
2022/02/01 08:20:03;;;;;;;17.15;7.57;;;;;;;;;;4931012;28;20508;-67
2022/02/01 08:25:10;;;;;;;17.45;6.32;;;;;;;;;;4895117;28;20468;-67
2022/02/01 08:27:36;;;;;;;22.67;7.50;;;;;;;;;;4930193;28;20380;-67
2022/02/01 08:30:06;;;;;;;14.73;6.70;;;;;;;;;;4929014;28;20035;-68
2022/02/01 08:32:31;;;;;;;20.33;7.45;;;;;;;;;;4945071;28;20318;-67
2022/02/01 08:34:57;;;;;;;16.30;7.45;;;;;;;;;;4930637;28;20340;-68
2022/02/01 08:37:22;;;;;;;14.48;6.70;;;;;;;;;;4944910;28;20493;-67
2022/02/01 08:39:48;;;;;;;17.10;6.22;;;;;;;;;;4930272;28;20463;-68
2022/02/01 08:42:14;;;;;;;20.98;6.95;;;;;;;;;;4929185;28;20484;-67
2022/02/01 08:44:39;;;;;;;18.88;6.88;;;;;;;;;;4930162;28;20512;-67
2022/02/01 08:47:05;;;;;;;17.85;7.47;;;;;;;;;;4930219;28;20480;-67
2022/02/01 08:49:31;;;;;;;12.98;6.53;;;;;;;;;;4930046;28;20546;-68
2022/02/01 08:52:03;;;;;;;14.23;5.90;;;;;;;;;;4930162;28;20108;-68
2022/02/01 08:54:29;;;;;;;13.73;6.68;;;;;;;;;;4930739;28;20416;-68
2022/02/01 08:59:40;;;;;;;13.65;6.65;;;;;;;;;;4933333;28;20112;-67
2022/02/01 09:02:07;;;;;;;14.85;6.47;;;;;;;;;;4934527;28;20045;-67
2022/02/01 09:04:32;;;;;;;17.50;6.45;;;;;;;;;;4932457;28;20451;-68
2022/02/01 09:07:00;;;;;;;12.98;6.05;;;;;;;;;;4933527;28;20429;-68
2022/02/01 09:09:26;;;;;;;12.55;5.78;;;;;;;;;;4948145;28;20469;-67
2022/02/01 09:11:52;;;;;;;16.92;7.10;;;;;;;;;;4953588;28;20429;-67
2022/02/01 09:14:17;;;;;;;18.33;6.95;;;;;;;;;;4933622;28;20054;-67
2022/02/01 09:16:42;;;;;;;14.43;5.93;;;;;;;;;;4911130;28;20554;-67
2022/02/01 09:19:08;;;;;;;13.40;5.65;;;;;;;;;;4931372;28;20070;-67
2022/02/01 09:21:34;;;;;;;16.92;6.68;;;;;;;;;;4933561;28;20354;-67
2022/02/01 09:23:59;;;;;;;17.05;6.93;;;;;;;;;;4932000;28;20392;-67
2022/02/01 09:26:24;;;;;;;12.27;6.47;;;;;;;;;;4933628;28;20114;-67
2022/02/01 09:28:50;;;;;;;15.73;6.82;;;;;;;;;;4932930;28;20392;-67
2022/02/01 09:31:16;;;;;;;14.55;6.30;;;;;;;;;;4934420;28;20299;-67
2022/02/01 09:33:42;;;;;;;11.27;5.78;;;;;;;;;;4934232;28;20370;-67
2022/02/01 09:36:07;;;;;;;19.67;6.10;;;;;;;;;;4933161;28;20050;-67
2022/02/01 09:38:34;;;;;;;13.80;5.35;;;;;;;;;;4934827;28;20410;-67
2022/02/01 09:41:00;;;;;;;13.27;6.63;;;;;;;;;;4933111;28;20461;-68
2022/02/01 09:43:26;;;;;;;16.77;6.22;;;;;;;;;;4932199;28;20346;-69
2022/02/01 09:45:53;;;;;;;13.23;5.30;;;;;;;;;;4932990;28;20034;-67
2022/02/01 09:48:19;;;;;;;14.45;5.68;;;;;;;;;;4932198;28;20488;-67
2022/02/01 09:50:44;;;;;;;13.70;5.32;;;;;;;;;;4931385;28;20489;-67
2022/02/01 09:53:09;;;;;;;11.95;5.97;;;;;;;;;;4932764;28;20350;-67
2022/02/01 09:55:35;;;;;;;13.07;5.35;;;;;;;;;;4932677;28;20441;-68
2022/02/01 09:58:02;;;;;;;11.20;5.53;;;;;;;;;;4931060;28;20357;-68
2022/02/01 10:00:35;;;;;;;11.50;4.78;;;;;;;;;;4933730;28;20161;-68
2022/02/01 10:03:01;;;;;;;10.82;4.68;;;;;;;;;;4931366;28;20458;-67
2022/02/01 10:05:26;;;;;;;17.20;6.60;;;;;;;;;;4933973;28;20528;-67
2022/02/01 10:07:54;;;;;;;11.35;4.78;;;;;;;;;;4931669;28;20365;-67
2022/02/01 10:10:21;;;;;;;14.20;5.78;;;;;;;;;;4932609;28;20373;-67
2022/02/01 10:13:08;;;;;;;17.23;6.18;;;;;;;;;;4965805;28;20459;-67
2022/02/01 10:15:37;;;;;;;9.63;4.95;;;;;;;;;;4966733;28;20341;-67
2022/02/01 10:18:03;;;;;;;17.48;5.97;;;;;;;;;;4934524;28;20356;-67
2022/02/01 10:20:36;;;;;;;13.07;4.57;;;;;;;;;;4966903;28;20519;-67
2022/02/01 10:23:15;;;;;;;11.60;4.70;;;;;;;;;;4952234;28;20448;-67
2022/02/01 10:25:40;;;;;;;;;;;;;;;;;;4935457;28;20451;-67
2022/02/01 10:28:06;;;;;;;8.53;4.13;;;;;;;;;;4952064;28;20294;-69
2022/02/01 10:30:42;;;;;;;12.60;4.47;;;;;;;;;;4953522;28;20687;-69
2022/02/01 10:33:19;;;;;;;9.63;4.10;;;;;;;;;;4952160;28;20103;-68
2022/02/01 10:35:58;;;;;;;15.32;4.93;;;;;;;;;;4951763;28;20333;-67
2022/02/01 10:38:30;;;;;;;12.03;4.30;;;;;;;;;;4935197;28;20038;-67
2022/02/01 10:40:56;;;;;;;12.38;4.75;;;;;;;;;;4966827;28;20405;-68
2022/02/01 10:43:23;;;;;;;9.00;4.47;;;;;;;;;;4952127;28;20487;-67
2022/02/01 10:45:50;;;;;;;14.57;5.07;;;;;;;;;;4951709;28;20360;-68
2022/02/01 10:48:25;;;;;;;9.77;4.15;;;;;;;;;;4951633;28;20022;-68
2022/02/01 10:51:01;;;;;;;14.27;4.30;;;;;;;;;;4934233;28;20515;-67
2022/02/01 10:53:27;;;;;;;14.75;5.63;;;;;;;;;;4951230;28;20656;-67
2022/02/01 10:55:52;;;;;;;13.30;4.95;;;;;;;;;;4933943;28;20344;-67
2022/02/01 10:58:18;;;;;;;12.77;4.93;;;;;;;;;;4951585;28;20359;-67
2022/02/01 11:00:44;;;;;;;11.73;4.97;;;;;;;;;;4951786;28;20399;-68
2022/02/01 11:03:14;;;;;;;9.52;4.53;;;;;;;;;;4934700;28;20388;-68
2022/02/01 11:05:48;;;;;;;10.45;5.55;;;;;;;;;;4951105;28;20030;-68
2022/02/01 11:08:22;;;;;;;12.85;5.78;;;;;;;;;;4934088;28;20491;-69
2022/02/01 11:10:49;;;;;;;18.88;5.38;;;;;;;;;;4933698;28;20033;-70
2022/02/01 11:13:15;;;;;;;10.65;5.15;;;;;;;;;;4951705;28;20318;-67
2022/02/01 11:16:01;;;;;;;8.68;4.72;;;;;;;;;;4965798;28;20349;-67
2022/02/01 11:18:27;;;;;;;8.85;4.95;;;;;;;;;;4952224;28;20034;-68
2022/02/01 11:21:02;;;;;;;13.13;5.53;;;;;;;;;;4965485;28;20471;-67
2022/02/01 11:23:34;;;;;;;11.90;4.28;;;;;;;;;;4966155;28;20333;-67
2022/02/01 11:26:08;;;;;;;13.93;4.07;;;;;;;;;;4933958;28;20339;-67
2022/02/01 11:28:47;;;;;;;11.40;4.28;;;;;;;;;;4952308;28;20471;-68
2022/02/01 11:31:12;;;;;;;9.55;4.25;;;;;;;;;;4951040;28;20429;-67
2022/02/01 11:33:44;;;;;;;11.05;4.78;;;;;;;;;;4933935;28;20413;-67
2022/02/01 11:36:13;;;;;;;9.75;5.28;;;;;;;;;;4966373;28;20022;-67
2022/02/01 11:38:56;;;;;;;13.90;5.38;;;;;;;;;;4965609;28;20469;-67
2022/02/01 11:41:36;;;;;;;10.43;4.05;;;;;;;;;;4951512;28;20435;-67
2022/02/01 11:44:12;;;;;;;13.75;4.88;;;;;;;;;;4933202;28;20528;-67
2022/02/01 11:46:38;;;;;;;11.60;5.00;;;;;;;;;;4950616;28;20546;-67
2022/02/01 11:49:04;;;;;;;15.52;5.28;;;;;;;;;;4951810;28;20336;-67
2022/02/01 11:51:31;;;;;;;12.13;5.55;;;;;;;;;;4950518;28;20344;-67
2022/02/01 11:53:58;;;;;;;11.93;5.05;;;;;;;;;;4951009;28;20286;-67
2022/02/01 11:56:34;;;;;;;15.90;6.60;;;;;;;;;;4965652;28;20414;-67
2022/02/01 11:59:06;;;;;;;13.15;5.05;;;;;;;;;;4932902;28;20368;-68
2022/02/01 12:01:39;;;;;;;15.57;6.38;;;;;;;;;;4934129;28;20427;-67
2022/02/01 12:04:11;;;;;;;9.75;5.00;;;;;;;;;;4950212;28;20092;-67
2022/02/01 12:06:43;;;;;;;11.77;5.53;;;;;;;;;;4950033;28;20487;-67
2022/02/01 12:09:13;;;;;;;21.38;5.68;;;;;;;;;;4933884;28;20099;-67
2022/02/01 12:11:42;;;;;;;11.07;5.18;;;;;;;;;;4949908;28;20207;-67
2022/02/01 12:14:07;;;;;;;14.13;6.28;;;;;;;;;;4950390;28;20348;-67
2022/02/01 12:16:34;;;;;;;10.40;5.20;;;;;;;;;;4949958;28;20030;-67
2022/02/01 12:19:06;;;;;;;10.30;4.65;;;;;;;;;;4932909;28;20034;-67
2022/02/01 12:21:45;;;;;;;14.40;5.32;;;;;;;;;;4932998;28;20022;-67
2022/02/01 12:24:10;;;;;;;13.38;5.57;;;;;;;;;;4932450;28;20373;-69
2022/02/01 12:26:38;;;;;;;10.77;4.82;;;;;;;;;;4950716;28;20325;-67
2022/02/01 12:29:06;;;;;;;9.70;4.82;;;;;;;;;;4933099;28;20436;-67
2022/02/01 12:31:34;;;;;;;12.68;6.18;;;;;;;;;;4949615;28;20408;-67
2022/02/01 12:34:01;;;;;;;15.25;5.88;;;;;;;;;;4932778;28;20060;-67
2022/02/01 12:36:32;;;;;;;11.05;4.40;;;;;;;;;;4932872;28;20140;-67
2022/02/01 12:39:26;;;;;;;11.20;6.00;;;;;;;;;;4964532;28;20433;-67
2022/02/01 12:42:04;;;;;;;14.43;5.57;;;;;;;;;;4925365;28;20499;-69
2022/02/01 12:47:02;;;;;;;11.70;6.22;;;;;;;;;;4950031;28;20511;-68
2022/02/01 12:49:31;;;;;;;;;;;;;;;;;;4932685;28;20518;-67
2022/02/01 12:51:56;;;;;;;13.83;5.73;;;;;;;;;;4951147;28;20295;-67
2022/02/01 12:54:27;;;;;;;10.82;5.07;;;;;;;;;;4932754;28;20353;-67
2022/02/01 12:57:18;;;;;;;17.60;7.05;;;;;;;;;;4949761;28;20034;-67
2022/02/01 12:59:44;;;;;;;13.90;5.45;;;;;;;;;;4932668;28;20472;-68
2022/02/01 13:02:19;;;;;;;19.75;5.28;;;;;;;;;;4932322;28;20436;-68
2022/02/01 13:04:44;;;;;;;13.25;6.15;;;;;;;;;;4950369;28;20026;-67
2022/02/01 13:07:23;;;;;;;11.15;5.68;;;;;;;;;;4950677;28;20441;-67
2022/02/01 13:18:12;;;;;;;18.95;7.25;;;;;;;;;;4928816;28;20465;-68
2022/02/01 13:20:41;;;;;;;18.30;6.35;;;;;;;;;;4929450;28;20445;-67
2022/02/01 13:23:07;;;;;;;13.60;6.35;;;;;;;;;;4930356;28;20327;-68
2022/02/01 13:25:35;;;;;;;13.43;5.95;;;;;;;;;;4931095;28;20425;-67
2022/02/01 13:28:04;;;;;;;12.75;6.60;;;;;;;;;;4930742;28;20440;-67
2022/02/01 13:30:30;;;;;;;16.83;7.00;;;;;;;;;;4928843;28;20133;-67
2022/02/01 13:33:09;;;;;;;13.10;5.78;;;;;;;;;;4930786;28;20026;-68
2022/02/01 13:35:43;;;;;;;13.77;5.33;;;;;;;;;;4931563;28;20468;-67
2022/02/01 13:38:12;;;;;;;11.73;6.25;;;;;;;;;;4930147;28;20460;-67
2022/02/01 13:40:39;;;;;;;;;;;;;;;;;;4931674;28;20521;-69
2022/02/01 13:43:15;;;;;;;12.10;5.85;;;;;;;;;;4930480;28;20316;-68
2022/02/01 13:45:41;;;;;;;15.35;6.63;;;;;;;;;;4933643;28;20401;-67
2022/02/01 13:48:11;;;;;;;16.45;5.47;;;;;;;;;;4933666;28;20433;-67
2022/02/01 13:50:37;;;;;;;17.75;7.90;;;;;;;;;;4933707;28;20464;-68
2022/02/01 13:53:05;;;;;;;13.40;6.43;;;;;;;;;;4932293;28;20429;-67
2022/02/01 13:55:33;;;;;;;14.05;6.13;;;;;;;;;;4933884;28;20053;-67
2022/02/01 13:58:18;;;;;;;12.70;5.22;;;;;;;;;;4947610;28;20348;-67
2022/02/01 14:00:47;;;;;;;15.13;5.93;;;;;;;;;;4933127;28;20105;-67
2022/02/01 14:06:27;;;;;;;15.32;6.43;;;;;;;;;;4932118;28;20437;-67
2022/02/01 14:34:57;;;;;;;16.23;6.60;;;;;;;;;;4953263;28;20414;-67
2022/02/01 14:45:11;;;;;;;20.20;7.97;;;;;;;;;;4951759;28;20492;-67
2022/02/01 14:47:36;;;;;;;20.27;7.18;;;;;;;;;;4934539;28;20427;-69
2022/02/01 14:50:03;;;;;;;24.25;9.27;;;;;;;;;;4951864;28;20503;-67
2022/02/01 14:52:28;;;;;;;20.65;7.22;;;;;;;;;;4934230;28;20447;-67
2022/02/01 14:54:58;;;;;;;18.17;7.80;;;;;;;;;;4950989;28;20468;-68
2022/02/01 15:13:36;;;;;;;19.50;7.75;;;;;;;;;;4933189;28;20109;-67
2022/02/01 15:16:02;;;;;;;20.10;8.50;;;;;;;;;;4931796;28;20030;-67
2022/02/01 15:18:27;;;;;;;19.67;7.40;;;;;;;;;;4930341;28;20372;-68
2022/02/01 15:20:52;;;;;;;14.52;6.60;;;;;;;;;;4933580;28;20460;-67
2022/02/01 15:23:19;;;;;;;20.52;8.00;;;;;;;;;;4931937;28;20045;-67
2022/02/01 15:25:46;;;;;;;17.63;7.63;;;;;;;;;;4947024;28;20369;-67
2022/02/01 15:28:11;;;;;;;18.13;7.18;;;;;;;;;;4932136;28;20026;-68
2022/02/01 15:30:37;;;;;;;18.23;8.23;;;;;;;;;;4931458;28;20475;-67
2022/02/01 15:33:04;;;;;;;15.88;7.82;;;;;;;;;;4931869;28;20031;-67
2022/02/01 15:35:30;;;;;;;12.30;6.90;;;;;;;;;;4932459;28;20491;-67
2022/02/01 15:37:55;;;;;;;18.45;7.53;;;;;;;;;;4931462;28;20512;-67
2022/02/01 15:59:29;;;;;;;14.85;7.18;;;;;;;;;;4932089;28;20457;-67
2022/02/01 16:01:58;;;;;;;17.30;7.43;;;;;;;;;;4945584;28;20416;-67
2022/02/01 16:04:24;;;;;;;15.80;7.13;;;;;;;;;;4931592;28;20364;-68
2022/02/01 16:07:02;;;;;;;17.30;6.60;;;;;;;;;;4928830;28;20429;-68
2022/02/01 16:11:55;;;;;;;12.15;6.80;;;;;;;;;;4929914;28;20035;-67
2022/02/01 16:14:21;;;;;;;18.67;7.35;;;;;;;;;;4931298;28;20437;-67
2022/02/01 16:16:46;;;;;;;15.68;6.55;;;;;;;;;;4931643;28;20450;-67
2022/02/01 16:19:13;;;;;;;19.48;7.97;;;;;;;;;;4930681;28;20480;-67
2022/02/01 16:21:38;;;;;;;20.80;7.65;;;;;;;;;;4931097;28;20468;-67
2022/02/01 16:24:04;;;;;;;22.30;8.73;;;;;;;;;;4931096;28;20346;-67
2022/02/01 16:26:29;;;;;;;22.48;7.68;;;;;;;;;;4945866;28;20311;-68
2022/02/01 16:28:56;;;;;;;17.88;8.50;;;;;;;;;;4932204;28;20305;-66
2022/02/01 16:31:22;;;;;;;24.05;8.93;;;;;;;;;;4931548;28;20413;-67
2022/02/01 16:33:48;;;;;;;25.42;9.95;;;;;;;;;;4928902;28;20445;-69
2022/02/01 16:36:19;;;;;;;21.63;8.18;;;;;;;;;;4930018;28;20446;-67
2022/02/01 16:38:45;;;;;;;16.58;7.70;;;;;;;;;;4930669;28;20452;-67
2022/02/01 16:41:10;;;;;;;17.25;8.13;;;;;;;;;;4930750;28;20480;-67
2022/02/01 16:43:38;;;;;;;18.08;8.43;;;;;;;;;;4931608;28;20410;-67
2022/02/01 16:46:03;;;;;;;16.55;7.13;;;;;;;;;;4929062;28;20527;-67
2022/02/01 16:48:29;;;;;;;20.30;8.48;;;;;;;;;;4929143;28;20420;-68
2022/02/01 16:50:54;;;;;;;19.65;9.00;;;;;;;;;;4928760;28;20502;-67
2022/02/01 16:53:21;;;;;;;19.35;8.50;;;;;;;;;;4930489;28;20441;-68
2022/02/01 16:56:01;;;;;;;18.33;7.70;;;;;;;;;;4930757;28;20109;-67
2022/02/01 16:58:30;;;;;;;22.35;9.35;;;;;;;;;;4930448;28;20554;-67
2022/02/01 17:00:57;;;;;;;22.48;9.63;;;;;;;;;;4931421;28;20409;-67
2022/02/01 17:03:24;;;;;;;23.25;9.15;;;;;;;;;;4929071;28;20429;-67
2022/02/01 17:05:53;;;;;;;17.75;8.73;;;;;;;;;;4928926;28;20345;-67
2022/02/01 17:08:24;;;;;;;14.85;7.38;;;;;;;;;;4929949;28;20483;-67
2022/02/01 17:10:54;;;;;;;15.82;8.55;;;;;;;;;;4929109;28;20031;-69
2022/02/01 17:13:36;;;;;;;17.40;8.43;;;;;;;;;;4959752;28;20458;-67
2022/02/01 17:21:34;;;;;;;20.92;8.10;;;;;;;;;;4954680;28;20136;-67
2022/02/01 17:24:00;;;;;;;21.25;8.25;;;;;;;;;;4932261;28;20434;-66
2022/02/01 17:26:26;;;;;;;20.88;8.10;;;;;;;;;;4932605;28;20476;-67
2022/02/01 17:28:51;;;;;;;24.20;8.52;;;;;;;;;;4933192;28;20048;-67
2022/02/01 17:31:17;;;;;;;19.50;8.52;;;;;;;;;;4948173;28;20464;-67